Time;durP1;ratioP1;P1;durP2;ratioP2;P2;SDS_P1;SDS_P2;PMS_P1;PMS_P2;Temp;Humidity;BMP_temperature;BMP_pressure;BME280_temperature;BME280_humidity;BME280_pressure;Samples;Min_cycle;Max_cycle;Signal;HPM_P1;HPM_P2
2022/10/02 00:00:12;;;;;;;13.87;4.77;;;9.80;99.90;;;;;;5283230;27;20488;-49
2022/10/02 00:02:54;;;;;;;10.30;3.80;;;9.80;99.90;;;;;;5266699;28;20459;-48
2022/10/02 00:05:48;;;;;;;10.63;5.40;;;9.80;99.90;;;;;;5272103;28;20945;-51
2022/10/02 00:08:29;;;;;;;18.90;5.40;;;9.90;99.90;;;;;;5284903;27;20455;-49
2022/10/02 00:11:12;;;;;;;21.20;4.17;;;10.00;99.90;;;;;;5277421;27;20903;-48
2022/10/02 00:13:51;;;;;;;9.97;3.83;;;10.00;99.90;;;;;;5265934;28;20803;-49
2022/10/02 00:16:36;;;;;;;15.47;3.77;;;10.10;99.90;;;;;;5266279;27;20536;-49
2022/10/02 00:19:14;;;;;;;8.77;3.27;;;10.10;99.90;;;;;;5268033;28;20434;-48
2022/10/02 00:22:14;;;;;;;14.10;4.10;;;10.20;99.90;;;;;;5287405;28;20434;-50
2022/10/02 00:24:49;;;;;;;9.23;3.57;;;10.10;99.90;;;;;;5288650;27;20438;-51
2022/10/02 00:27:41;;;;;;;9.50;4.10;;;10.10;99.90;;;;;;5283629;28;20518;-48
2022/10/02 00:30:16;;;;;;;14.73;4.77;;;10.00;99.90;;;;;;5271931;28;20438;-48
2022/10/02 00:33:37;;;;;;;16.83;4.50;;;10.00;99.90;;;;;;5291942;28;20427;-48
2022/10/02 00:36:07;;;;;;;12.30;4.33;;;9.90;99.90;;;;;;5185003;28;20493;-50
2022/10/02 00:38:48;;;;;;;6.80;4.40;;;10.00;99.90;;;;;;5186980;28;20998;-49
2022/10/02 00:41:39;;;;;;;3.73;2.90;;;9.90;99.90;;;;;;5242511;27;20630;-50
2022/10/02 00:44:24;;;;;;;6.23;3.30;;;9.90;99.90;;;;;;5286198;27;20469;-51
2022/10/02 00:46:58;;;;;;;15.93;3.23;;;9.80;99.90;;;;;;5281367;28;20442;-50
2022/10/02 00:49:41;;;;;;;11.23;3.23;;;9.80;99.90;;;;;;5268695;28;20433;-51
2022/10/02 00:52:33;;;;;;;12.97;4.00;;;9.80;99.90;;;;;;5289058;28;20623;-48
2022/10/02 00:55:30;;;;;;;6.00;3.20;;;9.90;99.90;;;;;;5273964;27;20930;-47
2022/10/02 00:58:42;;;;;;;17.33;4.33;;;9.90;99.90;;;;;;5281689;27;20467;-52
2022/10/02 01:01:29;;;;;;;9.40;3.87;;;9.90;99.90;;;;;;5259830;28;20430;-50
2022/10/02 01:04:08;;;;;;;26.13;4.57;;;9.90;99.90;;;;;;5269038;28;20462;-48
2022/10/02 01:06:39;;;;;;;12.87;4.13;;;9.80;99.90;;;;;;5284197;28;20929;-49
2022/10/02 01:09:10;;;;;;;6.40;3.40;;;9.90;99.90;;;;;;5249963;28;20446;-49
2022/10/02 01:11:41;;;;;;;16.40;3.40;;;9.90;99.90;;;;;;5264595;28;20430;-49
2022/10/02 01:14:12;;;;;;;13.03;3.73;;;9.90;99.90;;;;;;5264293;28;20487;-48
2022/10/02 01:16:44;;;;;;;6.93;3.00;;;9.90;99.90;;;;;;5265684;28;20212;-48
2022/10/02 01:19:37;;;;;;;17.07;5.10;;;9.90;99.90;;;;;;5269986;28;20526;-50
2022/10/02 01:22:33;;;;;;;7.40;4.10;;;9.80;99.90;;;;;;5285721;28;20798;-51
2022/10/02 01:25:05;;;;;;;20.73;4.67;;;9.80;99.90;;;;;;5268091;28;20464;-49
2022/10/02 01:27:36;;;;;;;15.90;3.60;;;9.80;99.90;;;;;;5269730;28;20546;-51
2022/10/02 01:30:10;;;;;;;2.37;2.10;;;9.70;99.90;;;;;;5278543;28;20509;-49
2022/10/02 01:32:47;;;;;;;6.90;3.20;;;9.80;99.90;;;;;;5279533;28;20435;-50
2022/10/02 01:35:21;;;;;;;6.27;3.23;;;9.70;99.90;;;;;;5287795;28;20495;-50
2022/10/02 01:37:53;;;;;;;14.33;3.40;;;9.70;99.90;;;;;;5281829;28;20511;-49
2022/10/02 01:40:32;;;;;;;18.50;4.00;;;9.70;99.90;;;;;;5266389;28;20428;-49
2022/10/02 01:43:26;;;;;;;15.80;3.97;;;9.60;99.90;;;;;;5286338;28;20474;-48
2022/10/02 01:46:23;;;;;;;17.83;4.17;;;9.60;99.90;;;;;;5281410;28;20468;-50
2022/10/02 01:49:07;;;;;;;4.60;2.80;;;9.50;99.90;;;;;;5241201;28;20443;-49
2022/10/02 01:51:47;;;;;;;15.40;3.73;;;9.50;99.90;;;;;;5287229;28;20425;-47
2022/10/02 01:54:21;;;;;;;7.40;2.73;;;9.60;99.90;;;;;;5272868;28;20439;-50
2022/10/02 01:57:06;;;;;;;20.20;3.80;;;9.60;99.90;;;;;;5282527;28;20478;-49
2022/10/02 01:59:55;;;;;;;17.73;3.80;;;9.60;99.90;;;;;;5280059;28;20431;-47
2022/10/02 02:02:39;;;;;;;5.73;3.33;;;9.60;99.90;;;;;;5287205;28;20438;-49
2022/10/02 02:05:25;;;;;;;9.03;3.53;;;9.50;99.90;;;;;;5281177;28;20443;-49
2022/10/02 02:08:10;;;;;;;11.10;3.77;;;9.50;99.90;;;;;;5263115;28;20451;-49
2022/10/02 02:10:59;;;;;;;9.03;3.63;;;9.50;99.90;;;;;;5283248;28;20423;-48
2022/10/02 02:13:40;;;;;;;5.43;2.67;;;9.40;99.90;;;;;;5276240;28;20492;-48
2022/10/02 02:16:37;;;;;;;12.23;3.00;;;9.40;99.90;;;;;;5278090;28;20437;-49
2022/10/02 02:19:20;;;;;;;19.87;4.40;;;9.40;99.90;;;;;;5287074;28;20851;-49
2022/10/02 02:22:12;;;;;;;10.73;3.00;;;9.40;99.90;;;;;;5292928;28;20444;-51
2022/10/02 02:24:51;;;;;;;12.50;3.07;;;9.50;99.90;;;;;;5274674;28;20462;-49
2022/10/02 02:27:26;;;;;;;12.93;3.40;;;9.60;99.90;;;;;;5269075;28;20450;-48
2022/10/02 02:30:05;;;;;;;16.10;4.03;;;9.60;99.90;;;;;;5281650;28;20853;-50
2022/10/02 02:32:40;;;;;;;15.23;3.93;;;9.50;99.90;;;;;;5288096;28;20422;-48
2022/10/02 02:35:20;;;;;;;14.07;3.90;;;9.50;99.90;;;;;;5291621;27;20476;-48
2022/10/02 02:37:55;;;;;;;13.77;4.50;;;9.50;99.90;;;;;;5280909;28;20470;-49
2022/10/02 02:40:29;;;;;;;11.63;3.43;;;9.40;99.90;;;;;;5276757;28;20457;-49
2022/10/02 02:43:07;;;;;;;18.67;3.90;;;9.40;99.90;;;;;;5289599;28;20457;-50
2022/10/02 02:45:50;;;;;;;8.37;3.20;;;9.40;99.90;;;;;;5287680;27;20433;-50
2022/10/02 02:48:31;;;;;;;6.20;2.50;;;9.30;99.90;;;;;;5288894;27;20446;-49
2022/10/02 02:51:31;;;;;;;22.27;4.00;;;9.40;99.90;;;;;;5285189;28;20865;-49
2022/10/02 02:54:36;;;;;;;5.93;2.83;;;9.40;99.90;;;;;;5278544;28;20557;-49
2022/10/02 02:57:09;;;;;;;11.93;3.30;;;9.30;99.90;;;;;;5277580;27;20454;-50
2022/10/02 02:59:44;;;;;;;8.53;3.03;;;9.30;99.90;;;;;;5273203;28;20442;-48
2022/10/02 03:02:15;;;;;;;19.83;4.67;;;9.20;99.90;;;;;;5271481;28;20427;-50
2022/10/02 03:04:45;;;;;;;10.57;3.20;;;9.20;99.90;;;;;;5271824;28;20465;-49
2022/10/02 03:07:16;;;;;;;6.77;2.60;;;9.20;99.90;;;;;;5274844;28;20228;-49
2022/10/02 03:10:06;;;;;;;22.23;4.10;;;9.20;99.90;;;;;;5286176;28;20624;-50
2022/10/02 03:13:13;;;;;;;13.57;4.60;;;9.20;99.90;;;;;;5265785;28;20430;-50
2022/10/02 03:15:57;;;;;;;8.47;3.10;;;9.20;99.90;;;;;;5265389;28;20443;-49
2022/10/02 03:18:45;;;;;;;11.40;3.73;;;9.20;99.90;;;;;;5272261;28;20511;-48
2022/10/02 03:21:35;;;;;;;4.43;2.77;;;9.20;99.90;;;;;;5291394;28;20462;-48
2022/10/02 03:24:16;;;;;;;9.17;3.20;;;9.20;99.90;;;;;;5288195;28;20950;-48
2022/10/02 03:26:56;;;;;;;9.20;3.20;;;9.20;99.90;;;;;;5269194;28;20786;-49
2022/10/02 03:29:50;;;;;;;7.80;2.93;;;9.20;99.90;;;;;;5272169;27;20438;-48
2022/10/02 03:32:22;;;;;;;20.47;4.60;;;9.20;99.90;;;;;;5286135;27;20443;-49
2022/10/02 03:34:55;;;;;;;7.00;3.57;;;9.10;99.90;;;;;;5283265;27;20938;-48
2022/10/02 03:37:28;;;;;;;8.23;3.30;;;9.20;99.90;;;;;;5294425;22;20486;-49
2022/10/02 03:40:00;;;;;;;15.00;3.57;;;9.10;99.90;;;;;;5283116;28;20426;-51
2022/10/02 03:42:33;;;;;;;11.90;3.93;;;9.10;99.90;;;;;;5275868;28;20420;-51
2022/10/02 03:45:04;;;;;;;11.87;3.67;;;9.10;99.90;;;;;;5277255;27;20520;-51
2022/10/02 03:47:35;;;;;;;12.63;3.43;;;9.10;99.90;;;;;;5281780;28;20911;-51
2022/10/02 03:50:06;;;;;;;16.00;5.50;;;9.10;99.90;;;;;;5268470;28;20432;-50
2022/10/02 03:52:36;;;;;;;21.57;5.33;;;9.20;99.90;;;;;;5257282;27;20265;-51
2022/10/02 03:55:27;;;;;;;11.30;4.13;;;9.20;99.90;;;;;;5264574;28;20835;-51
2022/10/02 03:58:01;;;;;;;13.87;3.40;;;9.20;99.90;;;;;;5263332;28;20200;-51
2022/10/02 04:00:36;;;;;;;17.07;3.23;;;9.20;99.90;;;;;;5265416;28;20506;-49
2022/10/02 04:03:23;;;;;;;8.93;3.47;;;9.20;99.90;;;;;;5278854;27;20500;-51
2022/10/02 04:05:58;;;;;;;16.80;3.60;;;9.20;99.90;;;;;;5279677;28;20434;-52
2022/10/02 04:08:38;;;;;;;17.57;5.00;;;9.20;99.90;;;;;;5255596;28;20449;-49
2022/10/02 04:11:37;;;;;;;13.90;3.80;;;9.20;99.90;;;;;;5280801;28;20937;-51
2022/10/02 04:14:23;;;;;;;17.33;5.27;;;9.30;99.90;;;;;;5286589;28;20432;-47
2022/10/02 04:17:15;;;;;;;10.00;3.67;;;9.30;99.90;;;;;;5285224;28;20555;-50
2022/10/02 04:19:48;;;;;;;20.83;4.77;;;9.30;99.90;;;;;;5255240;28;20445;-50
2022/10/02 04:22:51;;;;;;;20.50;4.00;;;9.20;99.90;;;;;;5269523;28;20793;-50
2022/10/02 04:25:27;;;;;;;11.73;4.00;;;9.20;99.90;;;;;;5262171;28;20475;-49
2022/10/02 04:28:06;;;;;;;16.13;2.90;;;9.20;99.90;;;;;;5269020;28;20438;-52
2022/10/02 04:30:37;;;;;;;14.10;3.90;;;9.20;99.90;;;;;;5269110;28;20999;-50
2022/10/02 04:33:21;;;;;;;26.17;5.20;;;9.20;99.90;;;;;;5276191;27;20435;-51
2022/10/02 04:36:33;;;;;;;6.40;2.70;;;9.20;99.90;;;;;;5263212;28;20204;-52
2022/10/02 04:39:21;;;;;;;10.63;3.83;;;9.20;99.90;;;;;;5257696;28;20556;-50
2022/10/02 04:42:09;;;;;;;15.23;3.47;;;9.30;99.90;;;;;;5260516;28;20432;-52
2022/10/02 04:45:04;;;;;;;5.00;2.87;;;9.40;99.90;;;;;;5278707;28;20542;-47
2022/10/02 04:48:04;;;;;;;18.20;4.20;;;9.40;99.90;;;;;;5279496;27;20803;-47
2022/10/02 04:51:00;;;;;;;14.33;4.03;;;9.40;99.90;;;;;;5269897;28;20509;-47
2022/10/02 04:53:54;;;;;;;8.93;3.53;;;9.50;99.90;;;;;;5260769;28;20764;-47
2022/10/02 04:56:43;;;;;;;18.57;3.80;;;9.60;99.90;;;;;;5278277;28;20424;-47
2022/10/02 04:59:20;;;;;;;6.30;3.50;;;9.60;99.90;;;;;;5286769;28;20443;-46
2022/10/02 05:01:56;;;;;;;3.40;3.10;;;9.60;99.90;;;;;;5279555;28;20446;-50
2022/10/02 05:04:34;;;;;;;11.27;3.43;;;9.60;99.90;;;;;;5285500;28;20462;-47
2022/10/02 05:07:11;;;;;;;10.90;3.70;;;9.70;99.90;;;;;;5282841;27;20462;-46
2022/10/02 05:10:00;;;;;;;14.77;4.00;;;9.70;99.90;;;;;;5273260;28;20426;-45
2022/10/02 05:12:46;;;;;;;9.30;2.90;;;9.80;99.90;;;;;;5269353;28;20836;-45
2022/10/02 05:15:42;;;;;;;9.73;3.77;;;9.80;99.90;;;;;;5274409;28;20906;-46
2022/10/02 05:18:48;;;;;;;16.63;4.53;;;9.80;99.90;;;;;;5267016;28;20919;-47
2022/10/02 05:21:33;;;;;;;12.03;3.20;;;9.80;99.90;;;;;;5253708;28;20438;-50
2022/10/02 05:24:27;;;;;;;7.97;3.87;;;9.90;99.90;;;;;;5282128;27;20552;-46
2022/10/02 05:27:09;;;;;;;8.03;3.10;;;9.90;99.90;;;;;;5291933;28;20439;-46
2022/10/02 05:30:04;;;;;;;8.90;3.03;;;9.90;99.90;;;;;;5266365;28;20438;-46
2022/10/02 05:33:10;;;;;;;9.43;3.00;;;9.90;99.90;;;;;;5261630;28;20493;-46
2022/10/02 05:36:09;;;;;;;6.00;2.83;;;9.90;99.90;;;;;;5283587;28;20449;-46
2022/10/02 05:39:36;;;;;;;13.20;3.10;;;9.90;99.90;;;;;;5284822;27;20551;-48
2022/10/02 05:42:19;;;;;;;14.50;2.50;;;9.90;99.90;;;;;;5187503;28;20438;-46
2022/10/02 05:44:55;;;;;;;32.47;5.30;;;9.90;99.90;;;;;;5268077;28;20818;-48
2022/10/02 05:47:39;;;;;;;13.93;3.23;;;10.00;99.90;;;;;;5287415;28;20462;-46
2022/10/02 05:50:19;;;;;;;16.13;4.40;;;10.00;99.90;;;;;;5263061;28;20977;-46
2022/10/02 05:52:56;;;;;;;4.33;2.90;;;10.10;99.90;;;;;;5289598;28;20426;-46
2022/10/02 05:55:47;;;;;;;6.23;3.30;;;10.20;99.90;;;;;;5291852;27;21004;-52
2022/10/02 05:58:32;;;;;;;11.43;4.03;;;10.30;99.90;;;;;;5292037;27;20462;-52
2022/10/02 06:01:11;;;;;;;14.23;3.70;;;10.50;99.90;;;;;;5290323;28;20434;-46
2022/10/02 06:04:17;;;;;;;18.10;4.33;;;10.70;99.90;;;;;;5269240;28;20467;-46
2022/10/02 06:06:53;;;;;;;9.80;4.07;;;11.10;99.90;;;;;;5287670;27;20426;-47
2022/10/02 06:09:32;;;;;;;13.63;4.40;;;11.40;99.90;;;;;;5275753;28;20818;-47
2022/10/02 06:12:09;;;;;;;13.20;4.40;;;11.70;99.90;;;;;;5294512;27;20450;-46
2022/10/02 06:14:53;;;;;;;16.47;3.60;;;11.80;99.90;;;;;;5287079;27;20427;-44
2022/10/02 06:17:29;;;;;;;7.73;2.77;;;11.70;99.90;;;;;;5285774;27;20858;-46
2022/10/02 06:20:04;;;;;;;10.13;3.57;;;11.70;99.90;;;;;;5290295;27;20429;-46
2022/10/02 06:22:43;;;;;;;21.17;3.57;;;11.50;99.90;;;;;;5288673;28;20513;-46
2022/10/02 06:25:23;;;;;;;14.43;3.63;;;11.60;99.90;;;;;;5292785;27;20433;-45
2022/10/02 06:27:58;;;;;;;23.33;3.90;;;11.50;99.90;;;;;;5287539;27;20449;-46
2022/10/02 06:30:32;;;;;;;10.53;2.90;;;11.40;99.90;;;;;;5286850;28;20473;-46
2022/10/02 06:33:25;;;;;;;12.63;3.73;;;11.40;99.90;;;;;;5268943;27;20794;-45
2022/10/02 06:36:07;;;;;;;11.13;2.97;;;11.30;99.90;;;;;;5282743;27;20443;-47
2022/10/02 06:39:05;;;;;;;10.60;3.00;;;11.40;99.90;;;;;;5286738;28;20471;-45
2022/10/02 06:41:53;;;;;;;7.47;2.90;;;11.50;99.90;;;;;;5272927;27;20433;-46
2022/10/02 06:44:33;;;;;;;10.90;4.30;;;11.70;99.90;;;;;;5272456;27;20455;-47
2022/10/02 06:47:33;;;;;;;10.40;4.40;;;11.80;99.90;;;;;;5291356;28;20540;-47
2022/10/02 06:50:49;;;;;;;15.10;3.53;;;12.20;99.90;;;;;;5281473;27;20455;-46
2022/10/02 06:53:29;;;;;;;15.37;3.77;;;13.10;99.90;;;;;;5237182;28;20434;-46
2022/10/02 06:56:22;;;;;;;5.57;3.60;;;14.10;99.90;;;;;;5290477;28;20445;-50
2022/10/02 06:59:21;;;;;;;12.07;2.60;;;15.20;99.90;;;;;;5262072;28;20463;-47
2022/10/02 07:02:08;;;;;;;6.53;3.90;;;15.90;99.90;;;;;;5268769;28;20802;-46
2022/10/02 07:04:57;;;;;;;10.77;3.10;;;16.70;99.90;;;;;;5281302;28;20470;-46
2022/10/02 07:07:42;;;;;;;6.70;2.43;;;17.00;99.90;;;;;;5287949;27;20457;-47
2022/10/02 07:10:42;;;;;;;5.30;2.20;;;16.30;99.90;;;;;;5268002;28;20977;-48
2022/10/02 07:13:24;;;;;;;13.03;3.87;;;17.20;99.90;;;;;;5282064;27;20517;-47
2022/10/02 07:16:10;;;;;;;7.63;3.53;;;18.20;99.90;;;;;;5269106;28;20431;-49
2022/10/02 07:19:14;;;;;;;6.57;2.20;;;18.90;99.90;;;;;;5269259;28;20466;-46
2022/10/02 07:21:53;;;;;;;9.77;3.33;;;19.60;99.90;;;;;;5281034;28;20491;-46
2022/10/02 07:24:57;;;;;;;6.77;2.60;;;19.70;99.90;;;;;;5287117;27;20554;-45
2022/10/02 07:27:53;;;;;;;6.53;2.30;;;19.10;99.90;;;;;;5251429;28;20481;-45
2022/10/02 07:30:26;;;;;;;3.90;2.10;;;19.00;99.90;;;;;;5262184;28;20450;-47
2022/10/02 07:33:18;;;;;;;10.40;3.20;;;19.00;99.90;;;;;;5267897;28;20434;-46
2022/10/02 07:36:04;;;;;;;3.13;2.17;;;20.30;99.90;;;;;;5286502;27;20521;-46
2022/10/02 07:38:43;;;;;;;10.03;2.53;;;21.80;96.90;;;;;;5285632;27;21025;-52
2022/10/02 07:41:40;;;;;;;6.30;2.70;;;22.50;90.20;;;;;;5261745;28;20426;-47
2022/10/02 07:44:13;;;;;;;7.93;2.30;;;21.90;85.80;;;;;;5291073;27;20557;-47
2022/10/02 07:46:56;;;;;;;9.20;3.40;;;20.50;90.50;;;;;;5292662;27;20425;-46
2022/10/02 07:49:40;;;;;;;6.57;2.70;;;19.20;94.50;;;;;;5281519;28;20430;-46
2022/10/02 07:52:19;;;;;;;6.23;2.90;;;18.00;99.40;;;;;;5282989;27;20521;-46
2022/10/02 07:54:56;;;;;;;6.53;3.23;;;17.30;99.90;;;;;;5284401;27;20445;-47
2022/10/02 07:57:29;;;;;;;9.50;3.37;;;16.60;99.90;;;;;;5266374;28;20456;-47
2022/10/02 08:00:22;;;;;;;7.37;3.90;;;16.10;99.90;;;;;;5269039;27;20490;-47
2022/10/02 08:03:01;;;;;;;4.70;2.90;;;15.60;99.90;;;;;;5267347;28;20455;-47
2022/10/02 08:05:44;;;;;;;6.53;2.67;;;15.80;99.90;;;;;;5270370;28;20438;-46
2022/10/02 08:08:38;;;;;;;7.07;3.00;;;16.10;99.90;;;;;;5271079;27;20525;-49
2022/10/02 08:11:43;;;;;;;3.40;2.20;;;16.50;99.90;;;;;;5284366;28;20450;-47
2022/10/02 08:14:25;;;;;;;8.50;3.33;;;16.90;99.90;;;;;;5268158;28;20435;-51
2022/10/02 08:17:01;;;;;;;9.40;3.03;;;17.30;99.90;;;;;;5272311;28;20458;-47
2022/10/02 08:19:39;;;;;;;8.93;2.67;;;17.60;99.90;;;;;;5288030;27;20443;-48
2022/10/02 08:22:24;;;;;;;14.73;3.70;;;17.50;99.90;;;;;;5283399;27;20454;-47
2022/10/02 08:25:00;;;;;;;7.90;3.30;;;17.00;99.90;;;;;;5283719;27;20466;-47
2022/10/02 08:27:58;;;;;;;7.47;3.20;;;16.80;99.90;;;;;;5285446;27;20499;-46
2022/10/02 08:30:29;;;;;;;19.33;5.63;;;16.80;99.90;;;;;;5283047;28;20792;-46
2022/10/02 08:33:01;;;;;;;10.77;4.37;;;17.00;99.90;;;;;;5267245;28;20422;-48
2022/10/02 08:35:46;;;;;;;6.23;3.50;;;17.00;99.90;;;;;;5289690;27;20174;-47
2022/10/02 08:38:35;;;;;;;5.27;3.23;;;17.10;99.90;;;;;;5273244;28;20482;-52
2022/10/02 08:41:26;;;;;;;9.17;3.40;;;17.20;99.90;;;;;;5275132;28;20791;-52
2022/10/02 08:44:15;;;;;;;8.03;3.43;;;17.10;99.90;;;;;;5278585;28;20551;-50
2022/10/02 08:47:08;;;;;;;8.30;3.20;;;16.90;99.90;;;;;;5257154;28;20431;-47
2022/10/02 08:50:08;;;;;;;12.53;3.63;;;17.10;99.90;;;;;;5259530;27;20487;-46
2022/10/02 08:53:09;;;;;;;11.73;3.83;;;17.40;99.90;;;;;;5275505;27;20975;-46
2022/10/02 08:55:47;;;;;;;14.37;4.13;;;17.30;99.90;;;;;;5284726;28;20418;-50
2022/10/02 08:58:51;;;;;;;12.57;3.53;;;17.30;99.90;;;;;;5284257;27;20442;-48
2022/10/02 09:01:53;;;;;;;9.23;3.63;;;17.30;99.90;;;;;;5282160;28;20488;-46
2022/10/02 09:05:01;;;;;;;4.47;2.83;;;17.40;99.90;;;;;;5278699;28;20462;-47
2022/10/02 09:08:09;;;;;;;6.10;3.20;;;17.30;99.90;;;;;;5262900;28;20454;-47
2022/10/02 09:11:02;;;;;;;4.47;3.33;;;17.10;99.90;;;;;;5282800;27;20926;-48
2022/10/02 09:13:54;;;;;;;11.10;4.17;;;17.20;99.90;;;;;;5278821;27;20445;-48
2022/10/02 09:17:09;;;;;;;11.43;3.70;;;17.30;99.90;;;;;;5263809;28;20578;-47
2022/10/02 09:19:45;;;;;;;11.17;3.90;;;17.40;99.90;;;;;;5264959;28;20487;-51
2022/10/02 09:22:50;;;;;;;8.20;3.67;;;17.20;99.90;;;;;;5280014;27;20426;-47
2022/10/02 09:25:34;;;;;;;7.70;3.67;;;17.00;99.90;;;;;;5274224;28;20809;-47
2022/10/02 09:28:05;;;;;;;13.20;4.03;;;16.80;99.90;;;;;;5275153;28;20854;-47
2022/10/02 09:31:13;;;;;;;12.47;4.40;;;16.80;99.90;;;;;;5257574;28;21030;-49
2022/10/02 09:34:21;;;;;;;16.10;4.00;;;16.70;99.90;;;;;;5290507;27;20181;-47
2022/10/02 09:40:01;;;;;;;10.50;3.53;;;16.50;99.90;;;;;;5288342;22;20496;-52
2022/10/02 09:43:00;;;;;;;5.93;3.23;;;16.70;99.90;;;;;;5282101;28;20430;-52
2022/10/02 09:45:36;;;;;;;16.00;3.97;;;16.90;99.90;;;;;;5278939;28;20446;-52
2022/10/02 09:48:36;;;;;;;14.47;4.40;;;17.20;99.90;;;;;;5263632;28;20454;-52
2022/10/02 09:51:16;;;;;;;5.47;2.70;;;17.30;99.90;;;;;;5263620;28;20433;-53
2022/10/02 09:53:56;;;;;;;11.60;3.67;;;17.40;99.90;;;;;;5266290;28;20471;-52
2022/10/02 09:57:04;;;;;;;6.83;3.03;;;17.50;99.90;;;;;;5280298;28;20962;-53
2022/10/02 09:59:57;;;;;;;11.17;4.70;;;17.40;99.90;;;;;;5249256;28;20764;-53
2022/10/02 10:02:46;;;;;;;7.87;3.50;;;17.60;99.90;;;;;;5288476;28;20419;-52
2022/10/02 10:05:26;;;;;;;12.77;4.17;;;17.70;99.90;;;;;;5281930;28;20415;-52
2022/10/02 10:08:33;;;;;;;5.20;3.50;;;17.70;99.90;;;;;;5269645;28;20450;-53
2022/10/02 10:11:31;;;;;;;11.50;3.77;;;17.70;99.90;;;;;;5264830;28;20957;-53
2022/10/02 10:14:49;;;;;;;9.13;2.90;;;17.50;99.90;;;;;;5284885;28;20902;-52
2022/10/02 10:17:41;;;;;;;12.13;3.87;;;17.30;99.90;;;;;;5233043;28;20525;-51
2022/10/02 10:20:36;;;;;;;8.10;3.73;;;16.80;99.90;;;;;;5284880;28;20945;-52
2022/10/02 10:23:13;;;;;;;23.30;5.03;;;16.40;99.90;;;;;;5271097;28;20462;-53
2022/10/02 10:26:15;;;;;;;11.53;3.60;;;16.00;99.90;;;;;;5273246;28;20437;-51
2022/10/02 10:28:49;;;;;;;7.47;3.40;;;15.50;99.90;;;;;;5289053;28;20456;-52
2022/10/02 10:31:40;;;;;;;6.73;3.50;;;15.20;99.90;;;;;;5283275;28;20441;-52
2022/10/02 10:34:33;;;;;;;4.90;3.87;;;15.20;99.90;;;;;;5258057;28;20514;-52
2022/10/02 10:40:34;;;;;;;8.07;4.10;;;15.90;99.90;;;;;;5289344;28;20561;-53
2022/10/02 10:43:40;;;;;;;11.00;3.50;;;16.10;99.90;;;;;;5240104;28;20572;-53
2022/10/02 10:46:36;;;;;;;9.53;3.97;;;16.10;99.90;;;;;;5282820;27;20443;-53
2022/10/02 10:49:24;;;;;;;5.57;3.23;;;16.10;99.90;;;;;;5273314;28;20500;-53
2022/10/02 10:52:36;;;;;;;8.83;2.47;;;16.20;99.90;;;;;;5285293;27;20790;-54
2022/10/02 10:55:28;;;;;;;4.03;3.03;;;16.30;99.90;;;;;;5273489;27;20469;-52
2022/10/02 10:58:38;;;;;;;7.57;3.87;;;16.40;99.90;;;;;;5287173;28;20454;-53
2022/10/02 11:01:51;;;;;;;5.60;3.67;;;16.40;99.90;;;;;;5272307;28;20430;-52
2022/10/02 11:04:38;;;;;;;4.93;3.07;;;16.10;99.90;;;;;;5238632;28;20477;-53
2022/10/02 11:07:38;;;;;;;4.07;2.40;;;15.80;99.90;;;;;;5267421;28;20927;-53
2022/10/02 11:10:59;;;;;;;3.47;2.50;;;15.40;99.90;;;;;;5264897;28;20442;-52
2022/10/02 11:13:33;;;;;;;10.37;3.27;;;15.10;99.90;;;;;;5251409;27;20450;-52
2022/10/02 11:16:09;;;;;;;8.50;4.30;;;14.80;99.90;;;;;;5281005;28;20443;-51
2022/10/02 11:19:06;;;;;;;5.30;3.13;;;14.60;99.90;;;;;;5283080;27;20447;-52
2022/10/02 11:21:57;;;;;;;6.07;3.13;;;14.30;99.90;;;;;;5284575;28;20906;-52
2022/10/02 11:24:49;;;;;;;8.07;4.30;;;14.20;99.90;;;;;;5260943;28;20470;-52
2022/10/02 11:28:02;;;;;;;13.97;3.77;;;13.90;99.90;;;;;;5278547;27;20934;-52
2022/10/02 11:30:48;;;;;;;10.80;4.10;;;13.70;99.90;;;;;;5271999;28;20454;-52
2022/10/02 11:33:52;;;;;;;7.23;4.67;;;13.40;99.90;;;;;;5282066;28;20424;-52
2022/10/02 11:37:01;;;;;;;9.90;4.13;;;13.20;99.90;;;;;;5287603;27;20427;-53
2022/10/02 11:39:58;;;;;;;13.67;7.00;;;13.10;99.90;;;;;;5187355;28;20629;-51
2022/10/02 11:43:13;;;;;;;10.43;3.90;;;13.00;99.90;;;;;;5296172;27;20442;-52
2022/10/02 11:46:08;;;;;;;8.13;5.97;;;13.10;99.90;;;;;;5287280;28;20519;-50
2022/10/02 11:48:58;;;;;;;23.00;10.27;;;13.20;99.90;;;;;;5285022;28;20447;-53
2022/10/02 11:52:00;;;;;;;11.77;4.50;;;13.30;99.90;;;;;;5289053;28;20503;-52
2022/10/02 11:54:47;;;;;;;17.43;6.50;;;13.40;99.90;;;;;;5292209;27;20438;-53
2022/10/02 11:57:31;;;;;;;13.43;5.00;;;13.50;99.90;;;;;;5272513;28;21022;-53
2022/10/02 12:00:33;;;;;;;4.83;3.83;;;13.60;99.90;;;;;;5284259;27;20439;-52
2022/10/02 12:03:25;;;;;;;5.10;3.67;;;13.70;99.90;;;;;;5278848;27;20544;-52
2022/10/02 12:05:58;;;;;;;6.00;3.60;;;13.80;99.90;;;;;;5292841;28;20934;-53
2022/10/02 12:08:45;;;;;;;6.40;4.07;;;13.90;99.90;;;;;;5290790;27;20525;-52
2022/10/02 12:11:39;;;;;;;18.33;4.23;;;14.00;99.90;;;;;;5289803;28;20487;-54
2022/10/02 12:14:37;;;;;;;9.00;4.23;;;14.10;99.90;;;;;;5294123;27;20438;-53
2022/10/02 12:17:25;;;;;;;4.73;3.80;;;14.10;99.90;;;;;;5268770;28;20450;-53
2022/10/02 12:26:58;;;;;;;6.43;3.10;;;14.60;99.90;;;;;;5284283;27;20503;-52
2022/10/02 12:29:39;;;;;;;8.80;3.33;;;14.90;99.90;;;;;;5276396;28;20949;-51
2022/10/02 12:32:37;;;;;;;5.80;2.93;;;15.20;99.90;;;;;;5283157;27;20418;-52
2022/10/02 12:35:16;;;;;;;5.53;3.10;;;15.70;99.90;;;;;;5267814;28;20443;-53
2022/10/02 12:38:24;;;;;;;10.50;2.40;;;15.90;99.90;;;;;;5283696;27;20446;-52
2022/10/02 12:41:08;;;;;;;7.73;2.93;;;16.10;99.90;;;;;;5265513;28;20610;-52
2022/10/02 12:44:08;;;;;;;5.47;2.47;;;16.30;99.90;;;;;;5280003;28;20450;-54
2022/10/02 12:46:38;;;;;;;8.47;2.47;;;16.40;99.90;;;;;;5282397;27;20446;-53
2022/10/02 12:49:28;;;;;;;13.73;3.60;;;16.10;99.90;;;;;;5277162;27;20451;-51
2022/10/02 12:52:39;;;;;;;10.73;2.13;;;16.20;99.90;;;;;;5284513;27;20257;-52
2022/10/02 12:55:52;;;;;;;6.67;3.77;;;16.40;99.90;;;;;;5262766;28;20733;-53
2022/10/02 12:59:05;;;;;;;6.83;3.83;;;16.60;99.90;;;;;;5275935;27;20453;-50
2022/10/02 13:02:26;;;;;;;8.60;2.57;;;16.40;99.90;;;;;;5247638;28;20446;-51
2022/10/02 13:06:05;;;;;;;2.33;1.40;;;16.30;99.90;;;;;;5267881;28;20528;-52
2022/10/02 13:09:03;;;;;;;3.20;1.47;;;16.30;99.90;;;;;;5172912;28;20454;-52
2022/10/02 13:12:11;;;;;;;2.63;1.60;;;16.30;99.90;;;;;;5286235;28;20439;-52
2022/10/02 13:14:51;;;;;;;5.17;1.37;;;16.40;99.90;;;;;;5269014;28;20510;-52
2022/10/02 13:17:54;;;;;;;4.57;1.80;;;16.40;99.90;;;;;;5287032;27;20730;-51
2022/10/02 13:20:37;;;;;;;7.53;1.80;;;16.50;99.90;;;;;;5249535;28;20450;-52
2022/10/02 13:23:11;;;;;;;3.53;1.23;;;16.60;99.90;;;;;;5285651;28;20500;-51
2022/10/02 13:25:53;;;;;;;3.07;1.43;;;16.50;99.90;;;;;;5286048;28;20429;-51
2022/10/02 13:28:35;;;;;;;2.53;1.20;;;16.40;99.90;;;;;;5280376;28;20966;-52
2022/10/02 13:31:41;;;;;;;7.70;2.13;;;16.20;99.90;;;;;;5276826;28;20786;-52
2022/10/02 13:34:33;;;;;;;6.60;2.10;;;16.10;99.90;;;;;;5283404;28;20789;-51
2022/10/02 13:37:16;;;;;;;12.87;2.30;;;16.10;99.90;;;;;;5284691;28;20453;-53
2022/10/02 13:40:23;;;;;;;7.03;4.67;;;16.00;99.90;;;;;;5270288;28;20466;-51
2022/10/02 13:43:04;;;;;;;21.00;7.00;;;15.90;99.90;;;;;;5284879;28;20492;-52
2022/10/02 13:45:44;;;;;;;8.60;3.50;;;15.70;99.90;;;;;;5265985;28;20648;-49
2022/10/02 13:48:33;;;;;;;5.57;3.60;;;15.50;99.90;;;;;;5284996;28;20525;-50
2022/10/02 13:51:07;;;;;;;3.17;1.80;;;15.30;99.90;;;;;;5264366;28;20414;-51
2022/10/02 13:54:16;;;;;;;7.40;2.50;;;15.30;99.90;;;;;;5287885;28;20490;-51
2022/10/02 13:57:32;;;;;;;2.57;1.77;;;15.30;99.90;;;;;;5257187;28;20444;-49
2022/10/02 14:00:40;;;;;;;4.30;2.07;;;15.40;99.90;;;;;;5219520;28;20442;-50
2022/10/02 14:03:10;;;;;;;7.97;3.53;;;15.40;99.90;;;;;;5272934;28;20466;-50
2022/10/02 14:06:11;;;;;;;14.53;4.03;;;15.40;99.90;;;;;;5271686;28;20526;-49
2022/10/02 14:09:05;;;;;;;6.10;3.00;;;15.50;99.90;;;;;;5197511;28;20197;-50
2022/10/02 14:11:59;;;;;;;7.30;3.20;;;15.60;99.90;;;;;;5284793;28;20427;-50
2022/10/02 14:15:01;;;;;;;21.03;8.13;;;15.70;99.90;;;;;;5287480;28;22089;-53
2022/10/02 14:17:35;;;;;;;2.67;2.00;;;15.70;99.90;;;;;;5275192;28;20430;-52
2022/10/02 14:20:34;;;;;;;1.90;1.67;;;15.80;99.90;;;;;;5276542;27;20872;-52
2022/10/02 14:23:40;;;;;;;2.97;1.70;;;16.00;99.90;;;;;;5283195;27;20434;-51
2022/10/02 14:26:10;;;;;;;1.83;1.63;;;16.40;99.90;;;;;;5263346;28;20979;-50
2022/10/02 14:29:16;;;;;;;2.17;1.37;;;16.70;99.90;;;;;;5265751;28;20451;-51
2022/10/02 14:32:11;;;;;;;7.20;1.77;;;17.10;99.90;;;;;;5264104;28;20179;-50
2022/10/02 14:34:54;;;;;;;2.00;1.80;;;17.30;99.90;;;;;;5284821;27;20434;-51
2022/10/02 14:37:24;;;;;;;12.10;2.50;;;17.10;99.90;;;;;;5287996;27;20465;-50
2022/10/02 14:39:58;;;;;;;3.40;1.90;;;16.90;99.90;;;;;;5284020;28;20454;-50
2022/10/02 14:42:54;;;;;;;2.43;1.20;;;16.80;99.90;;;;;;5284859;28;20523;-51
2022/10/02 14:45:44;;;;;;;8.43;2.40;;;17.00;99.90;;;;;;5291392;27;20508;-50